createdAt,value
2022-09-05T00:02:00.195Z,43.04
2022-09-05T00:06:52.960Z,43.14
2022-09-05T00:11:45.639Z,43.07
2022-09-05T00:16:38.174Z,43.18
2022-09-05T00:24:24.656Z,43
2022-09-05T00:26:23.145Z,43.03
2022-09-05T00:31:52.165Z,43.06
2022-09-05T00:36:08.508Z,43.07
2022-09-05T00:41:01.349Z,43.08
2022-09-05T00:45:54.036Z,43.02
2022-09-05T00:50:46.687Z,43.1
2022-09-05T00:55:39.430Z,43.09
2022-09-05T01:00:32.159Z,42.99
2022-09-05T01:05:25.070Z,43.1
2022-09-05T01:10:17.609Z,42.94
2022-09-05T01:15:10.215Z,42.98
2022-09-05T01:20:04.988Z,42.95
2022-09-05T01:24:55.317Z,43
2022-09-05T01:29:48.126Z,43.03
2022-09-05T01:34:40.929Z,42.94
2022-09-05T01:40:10.853Z,43.02
2022-09-05T01:44:26.385Z,43.04
2022-09-05T01:49:18.975Z,43.11
2022-09-05T01:54:14.117Z,43.05
2022-09-05T01:59:04.176Z,42.98
2022-09-05T02:03:56.758Z,42.9
2022-09-05T02:08:49.388Z,42.97
2022-09-05T02:13:42.038Z,43.01
2022-09-05T02:18:34.502Z,42.94
2022-09-05T02:23:36.778Z,43.01
2022-09-05T02:28:19.746Z,43.04
2022-09-05T02:33:12.272Z,42.89
2022-09-05T02:39:09.125Z,43.03
2022-09-05T02:45:15.480Z,43.03
2022-09-05T02:47:50.183Z,43.02
2022-09-05T02:57:31.234Z,42.96
2022-09-05T02:58:05.090Z,42.92
2022-09-05T03:02:28.042Z,43.01
2022-09-05T03:07:20.436Z,42.89
2022-09-05T03:12:29.032Z,42.96
2022-09-05T03:17:05.849Z,42.93
2022-09-05T03:26:50.940Z,43
2022-09-05T03:36:35.957Z,42.99
2022-09-05T03:41:33.956Z,43.02
2022-09-05T03:46:21.466Z,42.99
2022-09-05T03:57:10.245Z,42.84
2022-09-05T04:01:10.923Z,42.91
2022-09-05T04:08:12.183Z,42.95
2022-09-05T04:10:44.109Z,42.92
2022-09-05T04:15:36.730Z,42.85
2022-09-05T04:20:29.444Z,42.96
2022-09-05T04:25:22.312Z,42.81
2022-09-05T04:30:38.131Z,43.05
2022-09-05T04:35:07.275Z,43.08
2022-09-05T04:39:59.972Z,43.08
2022-09-05T04:44:55.615Z,43.5
2022-09-05T04:49:44.408Z,46.21
2022-09-05T04:54:36.741Z,44.12
2022-09-05T05:01:13.203Z,44.05
2022-09-05T05:06:07.128Z,44.07
2022-09-05T05:09:13.643Z,45.7
2022-09-05T05:17:54.575Z,46.39
2022-09-05T05:19:05.039Z,46.01
2022-09-05T05:23:51.927Z,44.65
2022-09-05T05:28:39.770Z,44.05
2022-09-05T05:33:32.258Z,45.23
2022-09-05T05:38:26.103Z,44.99
2022-09-05T05:43:17.986Z,46.69
2022-09-05T05:48:05.551Z,47.35
2022-09-05T05:52:58.336Z,47.19
2022-09-05T05:57:51.924Z,46.62
2022-09-05T06:02:45.181Z,45.82
2022-09-05T06:07:45.199Z,45.6
2022-09-05T06:14:53.458Z,45.42
2022-09-05T06:17:23.982Z,45.29
2022-09-05T06:22:19.321Z,45.45
2022-09-05T06:27:09.030Z,45.42
2022-09-05T06:32:01.553Z,45.48
2022-09-05T06:36:54.223Z,45.45
2022-09-05T06:41:46.804Z,45.48
2022-09-05T06:46:43.851Z,45.48
2022-09-05T06:51:32.148Z,45.4
2022-09-05T06:56:25.668Z,45.09
2022-09-05T07:01:17.825Z,45.35
2022-09-05T07:06:19.437Z,45.31
2022-09-05T07:11:11.582Z,45.29
2022-09-05T07:15:55.693Z,45.36
2022-09-05T07:21:17.607Z,45.47
2022-09-05T07:25:41.678Z,45.48
2022-09-05T07:30:34.213Z,45.44
2022-09-05T07:35:27.107Z,45.41
2022-09-05T07:40:25.547Z,45.53
2022-09-05T07:45:12.636Z,45.71
2022-09-05T07:51:36.113Z,45.68
2022-09-05T07:56:57.247Z,45.56
2022-09-05T07:59:50.671Z,45.59
2022-09-05T08:04:43.375Z,45.58
2022-09-05T08:10:05.707Z,45.58
2022-09-05T08:14:44.415Z,45.59
2022-09-05T08:19:21.386Z,45.53
2022-09-05T08:24:14.552Z,45.35
2022-09-05T08:29:06.808Z,45.48
2022-09-05T08:33:59.504Z,45.42
2022-09-05T08:38:52.373Z,45.67
2022-09-05T08:46:25.497Z,45.23
2022-09-05T08:48:37.783Z,45.26
2022-09-05T08:53:45.203Z,45.23
2022-09-05T08:58:23.089Z,45.22
2022-09-05T09:03:16.130Z,45.18
2022-09-05T09:08:08.732Z,45.11
2022-09-05T09:13:01.394Z,45.11
2022-09-05T09:17:54.050Z,45.09
2022-09-05T09:22:46.808Z,45.1
2022-09-05T09:28:47.085Z,45
2022-09-05T09:32:32.285Z,45.28
2022-09-05T09:37:31.994Z,45.5
2022-09-05T09:42:32.321Z,45.61
2022-09-05T09:47:10.354Z,45.54
2022-09-05T09:52:03.071Z,45.55
2022-09-05T10:01:48.340Z,45.57
2022-09-05T10:10:37.607Z,45.54
2022-09-05T10:11:54.048Z,45.52
2022-09-05T10:16:27.109Z,45.47
2022-09-05T10:21:19.430Z,45.48
2022-09-05T10:26:12.051Z,45.44
2022-09-05T10:31:46.646Z,45.47
2022-09-05T10:35:57.567Z,45.45
2022-09-05T10:41:13.826Z,45.4
2022-09-05T10:45:43.150Z,45.44
2022-09-05T10:50:35.948Z,45.33
2022-09-05T10:55:28.762Z,45.51
2022-09-05T11:02:16.733Z,45.69
2022-09-05T11:10:07.030Z,45.99
2022-09-05T11:19:52.433Z,46.06
2022-09-05T11:24:45.233Z,46.16
2022-09-05T11:29:37.880Z,46.14
2022-09-05T11:40:00.930Z,46.52
2022-09-05T11:49:08.845Z,46.55
2022-09-05T11:54:01.764Z,46.56
2022-09-05T11:58:54.558Z,46.48
2022-09-05T12:03:57.897Z,46.25
2022-09-05T12:08:41.469Z,46.19
2022-09-05T12:13:34.214Z,46.25
2022-09-05T12:18:27.208Z,46.35
2022-09-05T12:23:36.855Z,46.14
2022-09-05T12:28:39.623Z,46.04
2022-09-05T12:35:19.795Z,46.06
2022-09-05T12:39:52.105Z,46.11
2022-09-05T12:42:54.538Z,45.96
2022-09-05T12:47:43.698Z,46.02
2022-09-05T12:52:36.390Z,45.93
2022-09-05T12:58:57.239Z,45.89
2022-09-05T13:03:00.781Z,45.81
2022-09-05T13:07:14.461Z,45.68
2022-09-05T13:14:51.025Z,45.79
2022-09-05T13:16:59.744Z,45.72
2022-09-05T13:21:52.337Z,45.77
2022-09-05T13:26:45.001Z,45.71
2022-09-05T13:34:16.193Z,45.63
2022-09-05T13:38:09.499Z,45.63
2022-09-05T13:41:26.704Z,45.59
2022-09-05T13:46:15.924Z,45.46
2022-09-05T13:51:08.791Z,45.33
2022-09-05T13:56:03.111Z,45.34
2022-09-05T14:00:54.311Z,45.36
2022-09-05T14:05:47.216Z,45.29
2022-09-05T14:10:40.005Z,45.35
2022-09-05T14:15:32.900Z,45.43
2022-09-05T14:20:25.557Z,45.28
2022-09-05T14:25:18.179Z,45.51
2022-09-05T14:30:12.815Z,45.55
2022-09-05T14:37:47.719Z,45.52
2022-09-05T14:39:56.532Z,45.53
2022-09-05T14:44:49.463Z,45.42
2022-09-05T14:49:42.296Z,45.36
2022-09-05T15:02:47.382Z,45.46
2022-09-05T15:04:37.278Z,45.53
2022-09-05T15:10:04.394Z,45.49
2022-09-05T15:14:06.147Z,45.55
2022-09-05T15:18:58.866Z,45.52
2022-09-05T15:23:51.401Z,45.5
2022-09-05T15:28:44.200Z,45.44
2022-09-05T15:33:36.890Z,45.45
2022-09-05T15:38:29.565Z,45.54
2022-09-05T15:43:22.261Z,45.5
2022-09-05T15:48:15.303Z,45.48
2022-09-05T15:53:07.406Z,45.39
2022-09-05T15:58:00.196Z,45.42
2022-09-05T16:03:05.341Z,45.4
2022-09-05T16:10:32.192Z,45.48
2022-09-05T16:12:37.985Z,45.49
2022-09-05T16:22:01.268Z,45.58
2022-09-05T16:27:15.796Z,45.66
2022-09-05T16:37:08.070Z,45.51
2022-09-05T16:41:54.296Z,45.37
2022-09-05T16:46:47.129Z,45.4
2022-09-05T16:51:39.807Z,45.41
2022-09-05T16:56:32.612Z,45.51
2022-09-05T17:01:25.524Z,45.32
2022-09-05T17:06:17.973Z,45.3
2022-09-05T17:11:12.366Z,45.4
2022-09-05T17:16:03.611Z,45.35
2022-09-05T17:20:56.323Z,45.39
2022-09-05T17:29:23.178Z,45.32
2022-09-05T17:31:40.982Z,45.4
2022-09-05T17:35:34.430Z,45.51
2022-09-05T17:40:27.014Z,45.51
2022-09-05T17:45:19.650Z,45.51
2022-09-05T17:50:12.601Z,45.49
2022-09-05T17:55:05.537Z,45.64
2022-09-05T17:59:57.753Z,45.61
2022-09-05T18:04:50.365Z,45.49
2022-09-05T18:09:47.916Z,45.55
2022-09-05T18:14:37.307Z,45.6
2022-09-05T18:19:31.819Z,45.66
2022-09-05T18:24:21.290Z,45.67
2022-09-05T18:29:14.299Z,45.67
2022-09-05T18:34:06.795Z,45.66
2022-09-05T18:38:59.351Z,45.78
2022-09-05T18:44:12.746Z,45.74
2022-09-05T18:48:44.973Z,45.73
2022-09-05T18:53:37.817Z,45.73
2022-09-05T18:58:30.737Z,45.8
2022-09-05T19:03:25.059Z,45.76
2022-09-05T19:08:26.908Z,45.75
2022-09-05T19:13:10.400Z,45.75
2022-09-05T19:18:25.763Z,45.35
2022-09-05T19:23:09.411Z,45.31
2022-09-05T19:29:01.352Z,45.2
2022-09-05T19:37:01.858Z,45.3
2022-09-05T19:37:38.540Z,45.41
2022-09-05T19:47:32.691Z,45.67
2022-09-05T19:47:33.496Z,45.49
2022-09-05T19:52:11.812Z,45.24
2022-09-05T19:56:58.580Z,45.45
2022-09-05T20:01:52.219Z,45.32
2022-09-05T20:06:45.994Z,45.44
2022-09-05T20:11:45.447Z,45.58
2022-09-05T20:16:31.961Z,45.45
2022-09-05T20:21:26.451Z,45.23
2022-09-05T20:26:18.994Z,45.31
2022-09-05T20:31:11.706Z,45.4
2022-09-05T20:37:47.527Z,45.32
2022-09-05T20:43:25.602Z,45.28
2022-09-05T20:54:11.556Z,45.43
2022-09-05T20:55:38.056Z,45.33
2022-09-05T21:00:24.589Z,45.37
2022-09-05T21:05:20.538Z,45.31
2022-09-05T21:10:10.028Z,45.35
2022-09-05T21:15:02.751Z,45.35
2022-09-05T21:19:55.480Z,45.38
2022-09-05T21:29:36.004Z,45.39
2022-09-05T21:34:29.868Z,45.45
2022-09-05T21:39:22.486Z,45.49
2022-09-05T21:47:36.146Z,45.46
2022-09-05T21:49:07.845Z,45.6
2022-09-05T21:57:00.391Z,45.45
2022-09-05T21:59:23.183Z,45.47
2022-09-05T22:03:45.955Z,45.56
2022-09-05T22:13:31.372Z,45.82
2022-09-05T22:23:17.095Z,45.67
2022-09-05T22:28:09.710Z,45.92
2022-09-05T22:33:02.528Z,46.17
2022-09-05T22:37:59.869Z,45.94
2022-09-05T22:42:47.877Z,46.1
2022-09-05T22:47:40.632Z,46.09
2022-09-05T22:52:33.389Z,46.08
2022-09-05T22:57:25.859Z,46.23
2022-09-05T23:02:18.436Z,46.13
2022-09-05T23:07:11.098Z,46.27
2022-09-05T23:12:03.723Z,46.24
2022-09-05T23:16:56.563Z,46.36
2022-09-05T23:21:49.361Z,46.35
2022-09-05T23:26:42.226Z,46.59
2022-09-05T23:31:34.999Z,46.49
2022-09-05T23:36:27.606Z,46.66
2022-09-05T23:41:20.379Z,46.58
2022-09-05T23:46:13.245Z,46.75
2022-09-05T23:51:06.111Z,46.43
2022-09-05T23:55:58.657Z,46.63
